Terminal Aerodrome Forecast
Issued by NWS

Home | Current Version | Previous Version | Text Only | Print | Product List | Glossary On
Versions: 1 2 3 4 5 6 7 8 9 10 11 12 13 14 15
000
FTUS46 KMTR 242335
TAFMRY
TAF
KMRY 242335Z 2500/2524 16012KT P6SM -RA BKN020 OVC040
     FM250300 18008KT P6SM -SHRA OVC030
     FM250600 16004KT P6SM VCSH BKN030
     FM251000 VRB03KT P6SM SCT020
     FM251700 28005KT P6SM SCT030=

USA.gov is the U.S. government's official web portal to all federal, state and local government web resources and services.